Time;durP1;ratioP1;P1;durP2;ratioP2;P2;SDS_P1;SDS_P2;PMS_P1;PMS_P2;Temp;Humidity;BMP_temperature;BMP_pressure;BME280_temperature;BME280_humidity;BME280_pressure;Samples;Min_cycle;Max_cycle;Signal;HPM_P1;HPM_P2
2023/02/08 00:01:47;;;;;;;;;;;;;;;2.59;nan;104331.41;5003775;28;19922;-83
2023/02/08 00:04:12;;;;;;;;;;;;;;;2.55;nan;104327.28;5008966;28;19913;-83
2023/02/08 00:06:38;;;;;;;;;;;;;;;2.51;nan;104331.94;5013825;28;19917;-82
2023/02/08 00:09:03;;;;;;;;;;;;;;;2.47;nan;104333.09;5009538;28;19921;-82
2023/02/08 00:11:28;;;;;;;;;;;;;;;2.40;nan;104323.91;5009281;28;20256;-82
2023/02/08 00:13:54;;;;;;;;;;;;;;;2.37;nan;104332.06;5006662;28;19913;-82
2023/02/08 00:16:19;;;;;;;;;;;;;;;2.36;nan;104333.03;5011414;28;19917;-82
2023/02/08 00:18:44;;;;;;;;;;;;;;;2.34;nan;104334.94;5017553;28;19918;-82
2023/02/08 00:21:11;;;;;;;;;;;;;;;2.30;nan;104330.78;5016252;28;20012;-82
2023/02/08 00:23:37;;;;;;;;;;;;;;;2.28;nan;104337.97;5009157;28;19921;-82
2023/02/08 00:26:03;;;;;;;;;;;;;;;2.25;nan;104336.41;5010350;28;20377;-83
2023/02/08 00:28:28;;;;;;;;;;;;;;;2.24;nan;104331.22;5009022;28;19918;-83
2023/02/08 00:30:53;;;;;;;;;;;;;;;2.21;nan;104339.38;5005881;28;20383;-82
2023/02/08 00:33:19;;;;;;;;;;;;;;;2.17;nan;104330.81;5009605;28;19921;-83
2023/02/08 00:35:45;;;;;;;;;;;;;;;2.12;nan;104330.25;5016002;28;19926;-83
2023/02/08 00:38:10;;;;;;;;;;;;;;;2.08;nan;104334.91;5010226;28;20173;-83
2023/02/08 00:40:35;;;;;;;;;;;;;;;2.06;nan;104336.81;5001685;28;19922;-83
2023/02/08 00:43:01;;;;;;;;;;;;;;;2.03;nan;104329.09;5004465;28;20379;-82
2023/02/08 00:45:26;;;;;;;;;;;;;;;2.04;nan;104330.78;5009735;28;19918;-82
2023/02/08 00:47:52;;;;;;;;;;;;;;;2.04;nan;104324.66;5009501;28;20296;-82
2023/02/08 00:50:17;;;;;;;;;;;;;;;2.01;nan;104323.06;5008621;28;20008;-84
2023/02/08 00:52:43;;;;;;;;;;;;;;;1.99;nan;104327.59;5006597;28;19929;-82
2023/02/08 00:55:08;;;;;;;;;;;;;;;1.98;nan;104331.22;5018720;28;19917;-82
2023/02/08 00:57:34;;;;;;;;;;;;;;;1.95;nan;104336.69;5010950;28;19953;-82
2023/02/08 00:59:59;;;;;;;;;;;;;;;1.92;nan;104333.41;5009377;28;20112;-82
2023/02/08 01:02:25;;;;;;;;;;;;;;;1.90;nan;104340.59;5010000;28;20287;-85
2023/02/08 01:04:50;;;;;;;;;;;;;;;1.90;nan;104332.66;4988726;28;19983;-82
2023/02/08 01:07:16;;;;;;;;;;;;;;;1.88;nan;104335.41;5010074;28;19917;-83
2023/02/08 01:09:41;;;;;;;;;;;;;;;1.84;nan;104336.56;5013598;28;19918;-82
2023/02/08 01:12:07;;;;;;;;;;;;;;;1.81;nan;104342.06;5005495;28;19925;-83
2023/02/08 01:14:33;;;;;;;;;;;;;;;1.78;nan;104339.59;5003254;28;19929;-82
2023/02/08 01:16:58;;;;;;;;;;;;;;;1.75;nan;104331.88;5012030;28;20008;-82
2023/02/08 01:19:23;;;;;;;;;;;;;;;1.72;nan;104335.59;5009950;28;19917;-83
2023/02/08 01:21:49;;;;;;;;;;;;;;;1.70;nan;104339.28;5016859;28;20287;-82
2023/02/08 01:24:14;;;;;;;;;;;;;;;1.67;nan;104337.69;5010739;28;19928;-83
2023/02/08 01:26:40;;;;;;;;;;;;;;;1.68;nan;104330.59;5003689;28;19958;-82
2023/02/08 01:29:05;;;;;;;;;;;;;;;1.67;nan;104334.19;5015964;28;19917;-83
2023/02/08 01:31:33;;;;;;;;;;;;;;;1.64;nan;104339.69;5013960;28;20354;-82
2023/02/08 01:33:59;;;;;;;;;;;;;;;1.61;nan;104338.06;5015572;28;20032;-84
2023/02/08 01:36:25;;;;;;;;;;;;;;;1.58;nan;104329.50;4991922;28;19955;-82
2023/02/08 01:38:50;;;;;;;;;;;;;;;1.56;nan;104331.41;5007149;28;19921;-82
2023/02/08 01:41:18;;;;;;;;;;;;;;;1.52;nan;104330.78;5012324;28;19966;-82
2023/02/08 01:44:01;;;;;;;;;;;;;;;1.49;nan;104339.75;5011185;28;19925;-83
2023/02/08 01:46:27;;;;;;;;;;;;;;;1.44;nan;104331.28;5011943;28;19917;-84
2023/02/08 01:48:52;;;;;;;;;;;;;;;1.43;nan;104329.56;5012775;28;20118;-82
2023/02/08 01:51:20;;;;;;;;;;;;;;;1.43;nan;104329.56;5010315;28;19941;-82
2023/02/08 01:53:46;;;;;;;;;;;;;;;1.42;nan;104335.78;5014022;28;20374;-83
2023/02/08 01:56:14;;;;;;;;;;;;;;;1.40;nan;104327.13;5010572;28;19956;-82
2023/02/08 01:58:43;;;;;;;;;;;;;;;1.40;nan;104335.06;5014515;28;19917;-82
2023/02/08 02:01:08;;;;;;;;;;;;;;;1.38;nan;104330.81;5009689;28;19922;-82
2023/02/08 02:03:34;;;;;;;;;;;;;;;1.35;nan;104328.38;5009771;28;19917;-82
2023/02/08 02:06:06;;;;;;;;;;;;;;;1.32;nan;104331.22;5014662;28;19936;-83
2023/02/08 02:08:32;;;;;;;;;;;;;;;1.30;nan;104333.13;5011205;28;19924;-84
2023/02/08 02:10:57;;;;;;;;;;;;;;;1.27;nan;104331.53;5009931;28;20383;-82
2023/02/08 02:13:24;;;;;;;;;;;;;;;1.27;nan;104320.97;5011411;28;19976;-83
2023/02/08 02:15:49;;;;;;;;;;;;;;;1.24;nan;104323.78;5014073;28;20157;-82
2023/02/08 02:18:35;;;;;;;;;;;;;;;1.23;nan;104323.88;5013038;28;20017;-82
2023/02/08 02:21:06;;;;;;;;;;;;;;;1.17;nan;104323.34;5012822;28;20413;-83
2023/02/08 02:23:35;;;;;;;;;;;;;;;1.14;nan;104320.06;5009835;28;19945;-82
2023/02/08 02:26:19;;;;;;;;;;;;;;;1.11;nan;104314.97;5016043;28;19918;-82
2023/02/08 02:28:52;;;;;;;;;;;;;;;1.09;nan;104311.59;5014979;28;19917;-82
2023/02/08 02:31:21;;;;;;;;;;;;;;;1.08;nan;104318.66;5016019;28;19921;-82
2023/02/08 02:33:52;;;;;;;;;;;;;;;1.09;nan;104317.72;5017521;28;19913;-82
2023/02/08 02:36:36;;;;;;;;;;;;;;;1.07;nan;104319.56;5019098;28;19924;-82
2023/02/08 02:39:19;;;;;;;;;;;;;;;1.03;nan;104318.09;5016963;28;19918;-82
2023/02/08 02:44:38;;;;;;;;;;;;;;;0.97;nan;104322.91;5010191;28;19932;-82
2023/02/08 02:47:24;;;;;;;;;;;;;;;0.95;nan;104341.50;5017418;28;19920;-81
2023/02/08 02:49:52;;;;;;;;;;;;;;;0.92;nan;104346.13;4987229;28;19933;-82
2023/02/08 02:52:39;;;;;;;;;;;;;;;0.88;nan;104343.66;5020413;28;19991;-82
2023/02/08 02:55:08;;;;;;;;;;;;;;;0.86;nan;104352.63;5021163;28;19932;-82
2023/02/08 02:57:35;;;;;;;;;;;;;;;0.84;nan;104347.44;5014400;28;19914;-82
2023/02/08 03:00:05;;;;;;;;;;;;;;;0.84;nan;104352.72;5015006;28;19956;-82
2023/02/08 03:02:31;;;;;;;;;;;;;;;0.80;nan;104348.59;5013878;28;19920;-82
2023/02/08 03:04:56;;;;;;;;;;;;;;;0.79;nan;104346.03;5009579;28;19981;-82
2023/02/08 03:07:31;;;;;;;;;;;;;;;0.77;nan;104355.84;5016841;28;19913;-82
2023/02/08 03:10:15;;;;;;;;;;;;;;;0.73;nan;104349.94;5011936;28;19914;-82
2023/02/08 03:12:40;;;;;;;;;;;;;;;0.70;nan;104355.38;4992874;28;19944;-82
2023/02/08 03:15:24;;;;;;;;;;;;;;;0.72;nan;104361.44;5016661;28;19914;-82
2023/02/08 03:18:10;;;;;;;;;;;;;;;0.73;nan;104363.13;5016743;28;19917;-82
2023/02/08 03:20:41;;;;;;;;;;;;;;;0.78;nan;104363.69;5017107;28;19913;-85
2023/02/08 03:23:12;;;;;;;;;;;;;;;0.80;nan;104359.16;5017356;28;19993;-82
2023/02/08 03:25:48;;;;;;;;;;;;;;;0.82;nan;104356.41;5016609;28;20525;-82
2023/02/08 03:28:34;;;;;;;;;;;;;;;0.83;nan;104358.94;5030674;23;19931;-83
2023/02/08 03:31:12;;;;;;;;;;;;;;;0.81;nan;104363.47;5024681;28;19968;-83
2023/02/08 03:33:50;;;;;;;;;;;;;;;0.83;nan;104358.94;5022887;28;20090;-83
2023/02/08 03:36:44;;;;;;;;;;;;;;;0.83;nan;104366.88;5022698;28;19963;-83
2023/02/08 03:39:12;;;;;;;;;;;;;;;0.80;nan;104353.03;4995676;28;19921;-83
2023/02/08 03:41:39;;;;;;;;;;;;;;;0.79;nan;104360.09;5004887;28;19921;-83
2023/02/08 03:44:08;;;;;;;;;;;;;;;0.81;nan;104357.34;5002585;28;20015;-82
2023/02/08 03:46:37;;;;;;;;;;;;;;;0.81;nan;104360.00;5005504;28;20073;-82
2023/02/08 03:49:05;;;;;;;;;;;;;;;0.83;nan;104352.81;5001902;28;19925;-84
2023/02/08 03:51:32;;;;;;;;;;;;;;;0.83;nan;104347.53;5001254;28;19926;-83
2023/02/08 03:53:59;;;;;;;;;;;;;;;0.83;nan;104356.31;5005333;28;19960;-83
2023/02/08 03:56:39;;;;;;;;;;;;;;;0.85;nan;104348.28;5003689;28;20421;-82
2023/02/08 03:59:08;;;;;;;;;;;;;;;0.85;nan;104351.78;5004462;28;19972;-83
2023/02/08 04:02:09;;;;;;;;;;;;;;;0.83;nan;104351.03;5002388;28;19956;-82
2023/02/08 04:04:36;;;;;;;;;;;;;;;0.83;nan;104355.47;4940994;29;19927;-82
2023/02/08 04:07:02;;;;;;;;;;;;;;;0.80;nan;104359.16;4990385;28;20004;-82
2023/02/08 04:09:27;;;;;;;;;;;;;;;0.79;nan;104353.97;5006276;28;20008;-84
2023/02/08 04:11:52;;;;;;;;;;;;;;;0.75;nan;104349.81;5004044;28;19922;-83
2023/02/08 04:14:18;;;;;;;;;;;;;;;0.73;nan;104349.06;5005859;28;19917;-82
2023/02/08 04:16:43;;;;;;;;;;;;;;;0.70;nan;104363.28;5005099;28;19921;-84
2023/02/08 04:19:08;;;;;;;;;;;;;;;0.66;nan;104371.50;5001711;28;20493;-82
2023/02/08 04:21:34;;;;;;;;;;;;;;;0.60;nan;104365.66;5004037;28;20290;-82
2023/02/08 04:23:59;;;;;;;;;;;;;;;0.56;nan;104363.31;4998886;28;19996;-82
2023/02/08 04:26:25;;;;;;;;;;;;;;;0.51;nan;104370.63;5004423;28;19932;-82
2023/02/08 04:28:50;;;;;;;;;;;;;;;0.47;nan;104359.44;5003667;28;19929;-83
2023/02/08 04:31:16;;;;;;;;;;;;;;;0.43;nan;104355.28;5005403;28;19922;-82
2023/02/08 04:33:41;;;;;;;;;;;;;;;0.42;nan;104358.03;5003038;28;20391;-84
2023/02/08 04:36:07;;;;;;;;;;;;;;;0.39;nan;104353.78;5001861;28;19920;-83
2023/02/08 04:38:32;;;;;;;;;;;;;;;0.36;nan;104347.81;5001833;28;19921;-83
2023/02/08 04:40:57;;;;;;;;;;;;;;;0.32;nan;104341.88;5019406;28;20505;-82
2023/02/08 04:43:23;;;;;;;;;;;;;;;0.29;nan;104340.28;5002629;28;19921;-83
2023/02/08 04:45:49;;;;;;;;;;;;;;;0.26;nan;104343.13;5001765;28;19981;-82
2023/02/08 04:48:14;;;;;;;;;;;;;;;0.24;nan;104339.72;5002588;28;19961;-82
2023/02/08 04:50:39;;;;;;;;;;;;;;;0.23;nan;104339.81;5005375;28;20037;-84
2023/02/08 04:53:05;;;;;;;;;;;;;;;0.24;nan;104338.88;5002865;28;20037;-83
2023/02/08 04:55:31;;;;;;;;;;;;;;;0.24;nan;104347.63;5004128;28;19924;-83
2023/02/08 04:57:56;;;;;;;;;;;;;;;0.25;nan;104344.06;5002731;28;19925;-84
2023/02/08 05:00:22;;;;;;;;;;;;;;;0.25;nan;104328.22;5004185;28;19973;-82
2023/02/08 05:02:51;;;;;;;;;;;;;;;0.22;nan;104333.69;5003075;28;19921;-83
2023/02/08 05:05:16;;;;;;;;;;;;;;;0.22;nan;104340.75;5002439;28;20148;-82
2023/02/08 05:07:41;;;;;;;;;;;;;;;0.19;nan;104336.53;4997866;28;20342;-84
2023/02/08 05:10:07;;;;;;;;;;;;;;;0.18;nan;104331.31;5000674;28;19917;-83
2023/02/08 05:12:32;;;;;;;;;;;;;;;0.20;nan;104332.94;5004090;28;20044;-84
2023/02/08 05:14:58;;;;;;;;;;;;;;;0.23;nan;104326.63;5002893;28;20219;-82
2023/02/08 05:17:23;;;;;;;;;;;;;;;0.28;nan;104324.56;5004600;28;20450;-83
2023/02/08 05:19:48;;;;;;;;;;;;;;;0.34;nan;104333.88;5001102;28;20448;-82
2023/02/08 05:22:14;;;;;;;;;;;;;;;0.37;nan;104333.72;5003773;28;19928;-83
2023/02/08 05:24:39;;;;;;;;;;;;;;;0.40;nan;104344.06;5001069;28;19931;-83
2023/02/08 05:27:05;;;;;;;;;;;;;;;0.40;nan;104347.56;5002104;28;19928;-84
2023/02/08 05:29:30;;;;;;;;;;;;;;;0.43;nan;104351.81;5002669;28;19918;-83
2023/02/08 05:31:55;;;;;;;;;;;;;;;0.43;nan;104359.72;5000512;28;19925;-83
2023/02/08 05:34:21;;;;;;;;;;;;;;;0.43;nan;104351.81;5003195;28;19917;-83
2023/02/08 05:36:46;;;;;;;;;;;;;;;0.45;nan;104363.09;5000097;28;20381;-84
2023/02/08 05:39:11;;;;;;;;;;;;;;;0.44;nan;104364.91;5003235;28;19925;-83
2023/02/08 05:41:37;;;;;;;;;;;;;;;0.41;nan;104367.72;5001294;28;20280;-83
2023/02/08 05:44:02;;;;;;;;;;;;;;;0.42;nan;104374.69;5000067;28;20080;-83
2023/02/08 05:46:27;;;;;;;;;;;;;;;0.40;nan;104370.47;5001145;28;20409;-83
2023/02/08 05:48:53;;;;;;;;;;;;;;;0.37;nan;104383.84;5000887;28;19917;-83
2023/02/08 05:51:19;;;;;;;;;;;;;;;0.34;nan;104382.22;5001850;28;19921;-83
2023/02/08 05:53:45;;;;;;;;;;;;;;;0.32;nan;104388.53;5003324;28;19924;-83
2023/02/08 05:56:10;;;;;;;;;;;;;;;0.28;nan;104396.63;5005730;28;20101;-83
2023/02/08 05:58:35;;;;;;;;;;;;;;;0.24;nan;104381.91;5003313;28;19926;-83
2023/02/08 06:01:06;;;;;;;;;;;;;;;0.23;nan;104389.94;5000367;28;19996;-82
2023/02/08 06:03:31;;;;;;;;;;;;;;;0.19;nan;104389.28;5003383;28;20030;-82
2023/02/08 06:05:59;;;;;;;;;;;;;;;0.18;nan;104391.97;5002214;28;19925;-82
2023/02/08 06:08:24;;;;;;;;;;;;;;;0.13;nan;104396.66;4999814;28;19926;-82
2023/02/08 06:10:50;;;;;;;;;;;;;;;0.12;nan;104393.19;5000052;28;20580;-83
2023/02/08 06:13:15;;;;;;;;;;;;;;;0.07;nan;104395.25;4997223;28;19926;-82
2023/02/08 06:15:40;;;;;;;;;;;;;;;0.05;nan;104397.13;5001934;28;19964;-83
2023/02/08 06:18:08;;;;;;;;;;;;;;;0.04;nan;104389.31;5003301;28;20015;-83
2023/02/08 06:20:33;;;;;;;;;;;;;;;0.06;nan;104390.91;5000107;28;20338;-82
2023/02/08 06:22:58;;;;;;;;;;;;;;;0.11;nan;104396.75;4996973;28;19929;-84
2023/02/08 06:25:24;;;;;;;;;;;;;;;0.20;nan;104395.38;5001973;28;19957;-84
2023/02/08 06:27:49;;;;;;;;;;;;;;;0.26;nan;104392.38;5009954;28;19924;-84
2023/02/08 06:30:14;;;;;;;;;;;;;;;0.30;nan;104393.88;5030437;28;19951;-84
2023/02/08 06:32:40;;;;;;;;;;;;;;;0.35;nan;104390.97;5008737;28;19940;-83
2023/02/08 06:35:06;;;;;;;;;;;;;;;0.38;nan;104396.94;5007033;28;19918;-85
2023/02/08 06:37:31;;;;;;;;;;;;;;;0.42;nan;104395.81;5008828;28;19926;-83
2023/02/08 06:39:56;;;;;;;;;;;;;;;0.45;nan;104397.41;5007404;28;20375;-84
2023/02/08 06:42:22;;;;;;;;;;;;;;;0.47;nan;104400.78;5006962;28;19931;-83
2023/02/08 06:44:48;;;;;;;;;;;;;;;0.48;nan;104403.34;5005544;28;20422;-84
2023/02/08 06:47:14;;;;;;;;;;;;;;;0.48;nan;104399.84;5009317;28;19917;-83
2023/02/08 06:49:40;;;;;;;;;;;;;;;0.52;nan;104404.00;5007653;28;19940;-85
2023/02/08 06:52:06;;;;;;;;;;;;;;;0.56;nan;104408.16;5009652;28;20521;-84
2023/02/08 06:54:31;;;;;;;;;;;;;;;0.60;nan;104404.41;5002718;28;20008;-84
2023/02/08 06:56:56;;;;;;;;;;;;;;;0.66;nan;104408.44;5006764;28;21296;-84
2023/02/08 06:59:22;;;;;;;;;;;;;;;0.70;nan;104402.88;5006553;28;19928;-83
2023/02/08 07:01:47;;;;;;;;;;;;;;;0.76;nan;104401.69;5005138;28;19921;-84
2023/02/08 07:04:12;;;;;;;;;;;;;;;0.77;nan;104401.59;5004073;28;19917;-83
2023/02/08 07:06:38;;;;;;;;;;;;;;;0.80;nan;104405.81;5008675;28;20409;-84
2023/02/08 07:09:03;;;;;;;;;;;;;;;0.82;nan;104410.06;5006300;28;20291;-83
2023/02/08 07:11:28;;;;;;;;;;;;;;;0.86;nan;104416.00;5007086;28;19925;-84
2023/02/08 07:13:54;;;;;;;;;;;;;;;0.88;nan;104414.94;5004626;28;19922;-83
2023/02/08 07:16:19;;;;;;;;;;;;;;;0.90;nan;104413.09;5005286;28;20401;-83
2023/02/08 07:18:45;;;;;;;;;;;;;;;0.97;nan;104413.53;5005258;28;19971;-84
2023/02/08 07:21:10;;;;;;;;;;;;;;;1.01;nan;104422.97;5008430;28;19921;-85
2023/02/08 07:23:37;;;;;;;;;;;;;;;1.04;nan;104427.22;5008401;28;19917;-83
2023/02/08 07:26:06;;;;;;;;;;;;;;;1.05;nan;104432.41;5005913;28;20060;-83
2023/02/08 07:28:32;;;;;;;;;;;;;;;1.10;nan;104437.41;5006174;28;20008;-85
2023/02/08 07:30:57;;;;;;;;;;;;;;;1.15;nan;104438.81;5004813;28;20032;-84
2023/02/08 07:33:23;;;;;;;;;;;;;;;1.24;nan;104433.88;5007900;28;20375;-84
2023/02/08 07:35:49;;;;;;;;;;;;;;;1.31;nan;104445.78;5001476;28;19925;-85
2023/02/08 07:38:14;;;;;;;;;;;;;;;1.35;nan;104444.63;5004488;28;19951;-84
2023/02/08 07:40:40;;;;;;;;;;;;;;;1.42;nan;104445.94;5008157;28;19917;-85
2023/02/08 07:43:05;;;;;;;;;;;;;;;1.45;nan;104443.97;5004103;28;20350;-85
2023/02/08 07:45:31;;;;;;;;;;;;;;;1.50;nan;104449.81;5008921;28;20120;-86
2023/02/08 07:47:56;;;;;;;;;;;;;;;1.57;nan;104446.75;5005546;28;20235;-85
2023/02/08 07:50:22;;;;;;;;;;;;;;;1.63;nan;104454.31;5003751;28;19945;-85
2023/02/08 07:52:47;;;;;;;;;;;;;;;1.71;nan;104452.00;5004480;28;20433;-85
2023/02/08 07:55:16;;;;;;;;;;;;;;;1.81;nan;104455.75;5005592;28;20448;-84
2023/02/08 07:57:45;;;;;;;;;;;;;;;1.86;nan;104450.16;5003762;28;19971;-84
2023/02/08 08:00:10;;;;;;;;;;;;;;;1.88;nan;104450.91;5002626;28;19973;-84
2023/02/08 08:02:38;;;;;;;;;;;;;;;1.94;nan;104455.78;5005582;28;19967;-84
2023/02/08 08:05:04;;;;;;;;;;;;;;;2.00;nan;104452.75;5010996;28;19944;-86
2023/02/08 08:07:29;;;;;;;;;;;;;;;2.08;nan;104453.94;5013929;28;19921;-84
2023/02/08 08:09:54;;;;;;;;;;;;;;;2.16;nan;104453.44;5007995;28;20302;-83
2023/02/08 08:12:20;;;;;;;;;;;;;;;2.23;nan;104445.94;5012315;28;19965;-84
2023/02/08 08:14:46;;;;;;;;;;;;;;;2.29;nan;104445.53;5006959;28;19918;-84
2023/02/08 08:17:11;;;;;;;;;;;;;;;2.32;nan;104447.94;5007207;28;19944;-85
2023/02/08 08:19:37;;;;;;;;;;;;;;;2.33;nan;104442.56;5013710;28;19917;-87
2023/02/08 08:22:02;;;;;;;;;;;;;;;2.44;nan;104441.84;5011909;28;19921;-84
2023/02/08 08:24:29;;;;;;;;;;;;;;;2.53;nan;104435.94;5013363;28;19925;-85
2023/02/08 08:26:54;;;;;;;;;;;;;;;2.62;nan;104432.66;5005065;28;19953;-83
2023/02/08 08:29:20;;;;;;;;;;;;;;;2.67;nan;104427.03;5004735;28;20379;-87
2023/02/08 08:31:45;;;;;;;;;;;;;;;2.67;nan;104422.56;5004831;28;20004;-85
2023/02/08 08:34:14;;;;;;;;;;;;;;;2.73;nan;104422.16;5006716;28;19991;-84
2023/02/08 08:36:39;;;;;;;;;;;;;;;2.80;nan;104425.22;5005755;28;19921;-86
2023/02/08 08:39:04;;;;;;;;;;;;;;;2.90;nan;104434.25;5005874;28;19918;-83
2023/02/08 08:41:30;;;;;;;;;;;;;;;2.97;nan;104429.34;5004452;28;19921;-84
2023/02/08 08:43:55;;;;;;;;;;;;;;;3.03;nan;104437.69;5005784;28;20069;-85
2023/02/08 08:46:21;;;;;;;;;;;;;;;3.13;nan;104432.59;5007145;28;20337;-84
2023/02/08 08:48:46;;;;;;;;;;;;;;;3.21;nan;104438.19;5006940;28;19972;-84
2023/02/08 08:51:12;;;;;;;;;;;;;;;3.21;nan;104432.06;5010047;28;19952;-86
2023/02/08 08:53:38;;;;;;;;;;;;;;;3.27;nan;104432.47;5006590;28;19971;-86
2023/02/08 08:56:04;;;;;;;;;;;;;;;3.39;nan;104430.72;5004687;28;19922;-85
2023/02/08 08:58:29;;;;;;;;;;;;;;;3.49;nan;104433.59;5007514;28;19925;-84
2023/02/08 09:00:58;;;;;;;;;;;;;;;3.65;nan;104431.50;5011693;28;20000;-85
2023/02/08 09:03:24;;;;;;;;;;;;;;;3.73;nan;104438.88;5003891;28;19922;-85
2023/02/08 09:05:50;;;;;;;;;;;;;;;3.80;nan;104446.31;5001282;28;19940;-86
2023/02/08 09:08:15;;;;;;;;;;;;;;;3.91;nan;104448.16;5002336;28;19917;-85
2023/02/08 09:10:43;;;;;;;;;;;;;;;4.01;nan;104441.22;5003402;28;19918;-86
2023/02/08 09:13:09;;;;;;;;;;;;;;;4.07;nan;104445.19;5002164;28;20337;-89
2023/02/08 09:15:38;;;;;;;;;;;;;;;4.18;nan;104446.09;5005159;28;19921;-84
2023/02/08 09:18:06;;;;;;;;;;;;;;;4.34;nan;104439.63;5005746;28;19993;-85
2023/02/08 09:20:31;;;;;;;;;;;;;;;4.35;nan;104442.16;4999669;28;20351;-86
2023/02/08 09:22:57;;;;;;;;;;;;;;;4.40;nan;104440.00;5002897;28;19975;-84
2023/02/08 09:25:22;;;;;;;;;;;;;;;4.40;nan;104439.16;5001086;28;19928;-85
2023/02/08 09:27:48;;;;;;;;;;;;;;;4.55;nan;104432.69;5004044;28;20008;-85
2023/02/08 09:30:13;;;;;;;;;;;;;;;4.61;nan;104431.34;5006225;28;19917;-83
2023/02/08 09:32:38;;;;;;;;;;;;;;;4.67;nan;104428.19;5005713;28;19921;-84
2023/02/08 09:35:04;;;;;;;;;;;;;;;4.82;nan;104421.69;5008395;28;20405;-85
2023/02/08 09:37:30;;;;;;;;;;;;;;;4.87;nan;104411.56;5001549;28;19921;-85
2023/02/08 09:39:57;;;;;;;;;;;;;;;4.91;nan;104421.00;5006807;28;20421;-84
2023/02/08 09:42:25;;;;;;;;;;;;;;;5.01;nan;104407.81;5010650;28;19968;-85
2023/02/08 09:45:01;;;;;;;;;;;;;;;5.06;nan;104401.19;5009387;28;19928;-85
2023/02/08 09:47:32;;;;;;;;;;;;;;;5.18;nan;104403.81;5009594;28;19955;-85
2023/02/08 09:50:01;;;;;;;;;;;;;;;5.33;nan;104408.75;5003666;28;19972;-87
2023/02/08 09:52:47;;;;;;;;;;;;;;;5.38;nan;104416.34;5023565;28;19926;-85
2023/02/08 09:55:28;;;;;;;;;;;;;;;5.44;nan;104407.88;4968402;28;19918;-84
2023/02/08 09:57:55;;;;;;;;;;;;;;;5.57;nan;104413.06;5007191;28;19968;-86
2023/02/08 10:00:26;;;;;;;;;;;;;;;5.62;nan;104413.50;5010317;28;20326;-85
2023/02/08 10:02:53;;;;;;;;;;;;;;;5.68;nan;104413.84;5001810;28;19921;-88
2023/02/08 10:05:20;;;;;;;;;;;;;;;5.72;nan;104425.91;5010581;28;20409;-84
2023/02/08 10:07:47;;;;;;;;;;;;;;;5.76;nan;104416.75;5004629;28;20352;-84
2023/02/08 10:10:16;;;;;;;;;;;;;;;5.83;nan;104417.06;5004800;28;19930;-85
2023/02/08 10:13:03;;;;;;;;;;;;;;;5.91;nan;104419.94;5007172;28;19937;-85
2023/02/08 10:15:35;;;;;;;;;;;;;;;6.06;nan;104420.50;5004662;28;19921;-85
2023/02/08 10:18:10;;;;;;;;;;;;;;;6.19;nan;104412.34;5005428;28;20385;-84
2023/02/08 10:20:53;;;;;;;;;;;;;;;6.23;nan;104403.94;5005696;28;19976;-85
2023/02/08 10:23:42;;;;;;;;;;;;;;;6.22;nan;104396.94;5005950;28;19921;-85
2023/02/08 10:26:21;;;;;;;;;;;;;;;6.22;nan;104394.28;5000235;28;20394;-86
2023/02/08 10:28:53;;;;;;;;;;;;;;;6.31;nan;104395.31;4997830;28;19925;-86
2023/02/08 10:31:34;;;;;;;;;;;;;;;6.34;nan;104389.72;5002353;28;19976;-84
2023/02/08 10:34:11;;;;;;;;;;;;;;;6.45;nan;104378.13;4998562;28;19925;-86
2023/02/08 10:36:49;;;;;;;;;;;;;;;6.47;nan;104371.72;5005391;28;19928;-84
2023/02/08 10:39:16;;;;;;;;;;;;;;;6.57;nan;104371.75;5005630;28;19926;-85
2023/02/08 10:41:42;;;;;;;;;;;;;;;6.65;nan;104369.28;5006210;28;19928;-85
2023/02/08 10:44:25;;;;;;;;;;;;;;;6.63;nan;104374.72;5005742;28;19930;-87
2023/02/08 10:47:19;;;;;;;;;;;;;;;;;;;;;
2023/02/08 10:49:45;;;;;;;;;;;;;;;6.64;nan;104370.22;5005508;28;19917;-84
2023/02/08 10:52:11;;;;;;;;;;;;;;;6.72;nan;104364.25;5004573;28;19922;-84
2023/02/08 10:54:36;;;;;;;;;;;;;;;6.77;nan;104367.34;5006928;28;19928;-82
2023/02/08 10:57:11;;;;;;;;;;;;;;;6.84;nan;104360.53;5005198;28;19940;-84
2023/02/08 10:59:50;;;;;;;;;;;;;;;6.89;nan;104352.94;5005107;28;20348;-85
2023/02/08 11:02:20;;;;;;;;;;;;;;;6.90;nan;104360.81;5006305;28;19932;-86
2023/02/08 11:05:02;;;;;;;;;;;;;;;6.88;nan;104354.78;5002577;28;19921;-85
2023/02/08 11:07:28;;;;;;;;;;;;;;;6.87;nan;104360.25;5005864;28;19925;-86
2023/02/08 11:10:11;;;;;;;;;;;;;;;6.98;nan;104357.47;5007489;28;19967;-85
2023/02/08 11:12:37;;;;;;;;;;;;;;;7.15;nan;104347.94;5005098;28;20383;-85
2023/02/08 11:15:05;;;;;;;;;;;;;;;7.20;nan;104359.06;5002671;28;20067;-85
2023/02/08 11:17:32;;;;;;;;;;;;;;;7.26;nan;104351.34;5002197;28;19960;-85
2023/02/08 11:19:58;;;;;;;;;;;;;;;7.35;nan;104344.34;5008305;28;19921;-85
2023/02/08 11:22:27;;;;;;;;;;;;;;;7.45;nan;104347.88;5003318;28;19921;-86
2023/02/08 11:24:55;;;;;;;;;;;;;;;7.61;nan;104341.13;5018601;28;19933;-86
2023/02/08 11:27:27;;;;;;;;;;;;;;;7.68;nan;104344.91;5004510;28;20349;-87
2023/02/08 11:30:11;;;;;;;;;;;;;;;7.68;nan;104342.25;5005645;28;20015;-85
2023/02/08 11:32:36;;;;;;;;;;;;;;;7.72;nan;104335.63;5005610;28;20299;-85
2023/02/08 11:35:10;;;;;;;;;;;;;;;7.70;nan;104345.59;5006322;28;19982;-87
2023/02/08 11:37:36;;;;;;;;;;;;;;;7.81;nan;104340.97;5003294;28;19924;-85
2023/02/08 11:40:02;;;;;;;;;;;;;;;7.91;nan;104340.97;5006759;28;20008;-85
2023/02/08 11:42:27;;;;;;;;;;;;;;;8.02;nan;104343.47;5006686;28;19984;-85
2023/02/08 11:44:54;;;;;;;;;;;;;;;8.00;nan;104342.78;5005654;28;19955;-85
2023/02/08 11:47:24;;;;;;;;;;;;;;;8.05;nan;104351.19;5006329;28;19921;-87
2023/02/08 11:49:53;;;;;;;;;;;;;;;8.14;nan;104349.50;5002669;28;19925;-86
2023/02/08 11:52:26;;;;;;;;;;;;;;;8.28;nan;104357.06;5005126;28;20019;-86
2023/02/08 11:54:52;;;;;;;;;;;;;;;8.34;nan;104361.00;5007192;28;19928;-85
2023/02/08 11:57:19;;;;;;;;;;;;;;;8.30;nan;104354.25;5007286;28;19926;-84
2023/02/08 11:59:49;;;;;;;;;;;;;;;8.24;nan;104360.16;5001969;28;20017;-87
2023/02/08 12:02:25;;;;;;;;;;;;;;;8.33;nan;104370.00;5004978;28;19921;-85
2023/02/08 12:04:50;;;;;;;;;;;;;;;8.38;nan;104354.38;4997325;28;19922;-85
2023/02/08 12:07:24;;;;;;;;;;;;;;;8.42;nan;104358.44;5003757;28;19944;-87
2023/02/08 12:10:02;;;;;;;;;;;;;;;8.49;nan;104356.88;5002449;28;19925;-86
2023/02/08 12:12:27;;;;;;;;;;;;;;;8.64;nan;104355.44;5000424;28;19975;-85
2023/02/08 12:14:53;;;;;;;;;;;;;;;8.83;nan;104349.16;5003031;28;20287;-87
2023/02/08 12:17:19;;;;;;;;;;;;;;;8.92;nan;104347.41;4999129;28;19921;-85
2023/02/08 12:20:05;;;;;;;;;;;;;;;8.91;nan;104348.38;5002845;28;19921;-86
2023/02/08 12:22:31;;;;;;;;;;;;;;;9.01;nan;104335.81;5003187;28;19921;-85
2023/02/08 12:25:18;;;;;;;;;;;;;;;9.15;nan;104331.75;4989612;28;19956;-88
2023/02/08 12:28:21;;;;;;;;;;;;;;;9.28;nan;104326.88;5000013;28;20327;-85
2023/02/08 12:30:47;;;;;;;;;;;;;;;9.36;nan;104325.16;4950586;28;19929;-86
2023/02/08 12:33:20;;;;;;;;;;;;;;;9.46;nan;104325.06;4949005;28;19926;-87
2023/02/08 12:35:52;;;;;;;;;;;;;;;9.63;nan;104318.84;4973394;28;19924;-87
2023/02/08 12:41:19;;;;;;;;;;;;;;;9.58;nan;104317.63;5001335;28;20294;-87
2023/02/08 12:43:57;;;;;;;;;;;;;;;9.59;nan;104320.16;5000508;28;19921;-88
2023/02/08 12:46:37;;;;;;;;;;;;;;;9.68;nan;104315.69;5003591;28;19944;-85
2023/02/08 12:49:22;;;;;;;;;;;;;;;9.74;nan;104311.59;4999905;28;19925;-86
2023/02/08 12:51:56;;;;;;;;;;;;;;;9.69;nan;104298.63;5004079;28;19921;-89
2023/02/08 12:54:57;;;;;;;;;;;;;;;9.84;nan;104294.41;4998397;28;20004;-85
2023/02/08 12:57:32;;;;;;;;;;;;;;;10.00;nan;104288.31;4959944;28;19926;-87
2023/02/08 12:59:57;;;;;;;;;;;;;;;10.11;nan;104281.88;4989682;28;20036;-86
2023/02/08 13:02:43;;;;;;;;;;;;;;;10.12;nan;104287.06;5004801;28;20025;-87
2023/02/08 13:05:15;;;;;;;;;;;;;;;10.09;nan;104286.53;5001531;28;21013;-85
2023/02/08 13:07:42;;;;;;;;;;;;;;;10.24;nan;104282.31;5004887;28;19918;-86
2023/02/08 13:10:14;;;;;;;;;;;;;;;10.52;nan;104281.09;5002178;28;20380;-86
2023/02/08 13:12:45;;;;;;;;;;;;;;;10.83;nan;104293.94;4999264;28;19988;-85
2023/02/08 13:15:13;;;;;;;;;;;;;;;10.85;nan;104294.59;5004620;28;19930;-85
2023/02/08 13:17:52;;;;;;;;;;;;;;;10.73;nan;104294.06;5004013;28;19924;-84
2023/02/08 13:20:56;;;;;;;;;;;;;;;10.76;nan;104292.88;5002109;28;20387;-85
2023/02/08 13:23:25;;;;;;;;;;;;;;;10.82;nan;104292.25;4957515;28;19993;-85